sensor_id;sensor_type;location;lat;lon;timestamp;P1;durP1;ratioP1;P2;durP2;ratioP2
22308;SDS011;11322;50.858;-1.778;2023-06-24T00:00:34;8.8;;;4.45;;
22308;SDS011;11322;50.858;-1.778;2023-06-24T00:05:34;10.0;;;4.7;;
22308;SDS011;11322;50.858;-1.778;2023-06-24T00:10:34;6.55;;;3.9;;
22308;SDS011;11322;50.858;-1.778;2023-06-24T00:15:34;8.0;;;4.75;;
22308;SDS011;11322;50.858;-1.778;2023-06-24T00:20:34;6.5;;;4.55;;
22308;SDS011;11322;50.858;-1.778;2023-06-24T00:25:34;10.1;;;4.45;;
22308;SDS011;11322;50.858;-1.778;2023-06-24T00:30:34;8.4;;;4.2;;
22308;SDS011;11322;50.858;-1.778;2023-06-24T00:35:34;9.2;;;4.9;;
22308;SDS011;11322;50.858;-1.778;2023-06-24T00:40:34;9.5;;;4.65;;
22308;SDS011;11322;50.858;-1.778;2023-06-24T00:45:34;11.0;;;5.0;;
22308;SDS011;11322;50.858;-1.778;2023-06-24T00:50:34;9.0;;;4.0;;
22308;SDS011;11322;50.858;-1.778;2023-06-24T00:55:34;9.75;;;4.65;;
22308;SDS011;11322;50.858;-1.778;2023-06-24T01:00:34;6.25;;;4.5;;
22308;SDS011;11322;50.858;-1.778;2023-06-24T01:05:34;9.55;;;4.6;;
22308;SDS011;11322;50.858;-1.778;2023-06-24T01:10:34;10.5;;;5.0;;
22308;SDS011;11322;50.858;-1.778;2023-06-24T01:15:34;9.8;;;4.85;;
22308;SDS011;11322;50.858;-1.778;2023-06-24T01:20:36;9.8;;;4.75;;
22308;SDS011;11322;50.858;-1.778;2023-06-24T01:25:38;10.65;;;5.45;;
22308;SDS011;11322;50.858;-1.778;2023-06-24T01:30:38;8.25;;;4.15;;
22308;SDS011;11322;50.858;-1.778;2023-06-24T01:35:34;9.75;;;5.0;;
22308;SDS011;11322;50.858;-1.778;2023-06-24T01:40:34;11.65;;;5.05;;
22308;SDS011;11322;50.858;-1.778;2023-06-24T01:45:35;8.95;;;4.95;;
22308;SDS011;11322;50.858;-1.778;2023-06-24T01:50:35;12.2;;;5.45;;
22308;SDS011;11322;50.858;-1.778;2023-06-24T01:55:34;12.7;;;5.55;;
22308;SDS011;11322;50.858;-1.778;2023-06-24T02:00:34;13.0;;;5.35;;
22308;SDS011;11322;50.858;-1.778;2023-06-24T02:05:34;10.45;;;5.8;;
22308;SDS011;11322;50.858;-1.778;2023-06-24T02:10:34;10.4;;;5.3;;
22308;SDS011;11322;50.858;-1.778;2023-06-24T02:15:34;9.25;;;4.55;;
22308;SDS011;11322;50.858;-1.778;2023-06-24T02:20:34;16.25;;;5.7;;
22308;SDS011;11322;50.858;-1.778;2023-06-24T02:25:34;9.4;;;4.95;;
22308;SDS011;11322;50.858;-1.778;2023-06-24T02:30:34;8.55;;;4.75;;
22308;SDS011;11322;50.858;-1.778;2023-06-24T02:35:34;7.4;;;3.7;;
22308;SDS011;11322;50.858;-1.778;2023-06-24T02:40:34;9.25;;;4.55;;
22308;SDS011;11322;50.858;-1.778;2023-06-24T02:45:34;6.9;;;4.4;;
22308;SDS011;11322;50.858;-1.778;2023-06-24T02:50:34;7.15;;;4.05;;
22308;SDS011;11322;50.858;-1.778;2023-06-24T02:55:34;9.0;;;4.85;;
22308;SDS011;11322;50.858;-1.778;2023-06-24T03:00:34;14.1;;;4.75;;
22308;SDS011;11322;50.858;-1.778;2023-06-24T03:05:34;10.15;;;4.65;;
22308;SDS011;11322;50.858;-1.778;2023-06-24T03:10:35;13.65;;;4.65;;
22308;SDS011;11322;50.858;-1.778;2023-06-24T03:15:34;14.3;;;4.95;;
22308;SDS011;11322;50.858;-1.778;2023-06-24T03:20:34;8.3;;;4.4;;
22308;SDS011;11322;50.858;-1.778;2023-06-24T03:25:34;10.9;;;4.7;;
22308;SDS011;11322;50.858;-1.778;2023-06-24T03:30:34;11.25;;;5.5;;
22308;SDS011;11322;50.858;-1.778;2023-06-24T03:35:34;11.9;;;4.75;;
22308;SDS011;11322;50.858;-1.778;2023-06-24T03:40:34;11.05;;;4.7;;
22308;SDS011;11322;50.858;-1.778;2023-06-24T03:45:35;9.85;;;4.55;;
22308;SDS011;11322;50.858;-1.778;2023-06-24T03:50:34;6.65;;;4.1;;
22308;SDS011;11322;50.858;-1.778;2023-06-24T03:55:34;12.55;;;5.2;;
22308;SDS011;11322;50.858;-1.778;2023-06-24T04:00:34;9.35;;;5.0;;
22308;SDS011;11322;50.858;-1.778;2023-06-24T04:05:34;7.45;;;4.45;;
22308;SDS011;11322;50.858;-1.778;2023-06-24T04:10:34;10.5;;;4.1;;
22308;SDS011;11322;50.858;-1.778;2023-06-24T04:15:34;10.1;;;4.9;;
22308;SDS011;11322;50.858;-1.778;2023-06-24T04:20:34;9.65;;;4.45;;
22308;SDS011;11322;50.858;-1.778;2023-06-24T04:25:34;12.0;;;5.2;;
22308;SDS011;11322;50.858;-1.778;2023-06-24T04:30:34;9.75;;;4.75;;
22308;SDS011;11322;50.858;-1.778;2023-06-24T04:35:34;9.45;;;5.3;;
22308;SDS011;11322;50.858;-1.778;2023-06-24T04:40:34;7.05;;;4.25;;
22308;SDS011;11322;50.858;-1.778;2023-06-24T04:45:34;11.8;;;5.15;;
22308;SDS011;11322;50.858;-1.778;2023-06-24T04:50:34;10.5;;;5.0;;
22308;SDS011;11322;50.858;-1.778;2023-06-24T04:55:34;7.7;;;4.6;;
22308;SDS011;11322;50.858;-1.778;2023-06-24T05:00:34;8.45;;;4.6;;
22308;SDS011;11322;50.858;-1.778;2023-06-24T05:05:34;11.6;;;4.75;;
22308;SDS011;11322;50.858;-1.778;2023-06-24T05:10:34;8.5;;;4.55;;
22308;SDS011;11322;50.858;-1.778;2023-06-24T05:15:34;8.45;;;4.2;;
22308;SDS011;11322;50.858;-1.778;2023-06-24T05:20:34;8.85;;;4.2;;
22308;SDS011;11322;50.858;-1.778;2023-06-24T05:25:34;8.2;;;4.25;;
22308;SDS011;11322;50.858;-1.778;2023-06-24T05:30:34;8.6;;;4.35;;
22308;SDS011;11322;50.858;-1.778;2023-06-24T05:35:34;7.15;;;3.9;;
22308;SDS011;11322;50.858;-1.778;2023-06-24T05:40:34;6.6;;;4.05;;
22308;SDS011;11322;50.858;-1.778;2023-06-24T05:45:34;10.1;;;4.35;;
22308;SDS011;11322;50.858;-1.778;2023-06-24T05:50:34;12.6;;;4.7;;
22308;SDS011;11322;50.858;-1.778;2023-06-24T05:55:34;8.25;;;4.15;;
22308;SDS011;11322;50.858;-1.778;2023-06-24T06:00:34;8.75;;;4.25;;
22308;SDS011;11322;50.858;-1.778;2023-06-24T06:05:34;9.4;;;5.1;;
22308;SDS011;11322;50.858;-1.778;2023-06-24T06:10:34;7.15;;;4.0;;
22308;SDS011;11322;50.858;-1.778;2023-06-24T06:15:34;6.95;;;3.9;;
22308;SDS011;11322;50.858;-1.778;2023-06-24T06:20:34;6.8;;;4.2;;
22308;SDS011;11322;50.858;-1.778;2023-06-24T06:25:35;9.35;;;3.15;;
22308;SDS011;11322;50.858;-1.778;2023-06-24T06:30:34;6.1;;;3.3;;
22308;SDS011;11322;50.858;-1.778;2023-06-24T06:35:34;6.55;;;3.05;;
22308;SDS011;11322;50.858;-1.778;2023-06-24T06:40:34;11.35;;;5.25;;
22308;SDS011;11322;50.858;-1.778;2023-06-24T06:45:34;6.2;;;3.85;;
22308;SDS011;11322;50.858;-1.778;2023-06-24T06:50:34;7.1;;;4.15;;
22308;SDS011;11322;50.858;-1.778;2023-06-24T06:55:34;6.05;;;3.5;;
22308;SDS011;11322;50.858;-1.778;2023-06-24T07:00:34;5.95;;;4.0;;
22308;SDS011;11322;50.858;-1.778;2023-06-24T07:05:34;11.9;;;4.5;;
22308;SDS011;11322;50.858;-1.778;2023-06-24T07:10:34;10.0;;;3.85;;
22308;SDS011;11322;50.858;-1.778;2023-06-24T07:15:34;10.3;;;4.7;;
22308;SDS011;11322;50.858;-1.778;2023-06-24T07:20:34;7.85;;;3.95;;
22308;SDS011;11322;50.858;-1.778;2023-06-24T07:25:34;7.55;;;4.05;;
22308;SDS011;11322;50.858;-1.778;2023-06-24T07:30:34;9.3;;;4.55;;
22308;SDS011;11322;50.858;-1.778;2023-06-24T07:35:34;5.35;;;3.5;;
22308;SDS011;11322;50.858;-1.778;2023-06-24T07:40:34;6.6;;;4.15;;
22308;SDS011;11322;50.858;-1.778;2023-06-24T07:45:34;5.2;;;3.5;;
22308;SDS011;11322;50.858;-1.778;2023-06-24T07:50:34;5.0;;;3.3;;
22308;SDS011;11322;50.858;-1.778;2023-06-24T07:55:34;6.7;;;3.6;;
22308;SDS011;11322;50.858;-1.778;2023-06-24T08:00:34;8.4;;;4.1;;
22308;SDS011;11322;50.858;-1.778;2023-06-24T08:05:34;7.05;;;4.2;;
22308;SDS011;11322;50.858;-1.778;2023-06-24T08:10:34;8.0;;;3.75;;
22308;SDS011;11322;50.858;-1.778;2023-06-24T08:15:34;8.75;;;3.8;;
22308;SDS011;11322;50.858;-1.778;2023-06-24T08:20:34;6.05;;;3.9;;
22308;SDS011;11322;50.858;-1.778;2023-06-24T08:25:34;5.45;;;3.8;;
22308;SDS011;11322;50.858;-1.778;2023-06-24T08:30:34;11.2;;;5.35;;
22308;SDS011;11322;50.858;-1.778;2023-06-24T08:35:34;11.7;;;4.65;;
22308;SDS011;11322;50.858;-1.778;2023-06-24T08:40:34;7.7;;;4.0;;
22308;SDS011;11322;50.858;-1.778;2023-06-24T08:45:34;5.65;;;3.4;;
22308;SDS011;11322;50.858;-1.778;2023-06-24T08:50:35;6.65;;;3.8;;
22308;SDS011;11322;50.858;-1.778;2023-06-24T08:55:39;7.6;;;3.75;;
22308;SDS011;11322;50.858;-1.778;2023-06-24T09:00:34;11.35;;;5.3;;
22308;SDS011;11322;50.858;-1.778;2023-06-24T09:05:34;7.95;;;4.45;;
22308;SDS011;11322;50.858;-1.778;2023-06-24T09:10:34;10.1;;;5.3;;
22308;SDS011;11322;50.858;-1.778;2023-06-24T09:15:34;10.35;;;5.05;;
22308;SDS011;11322;50.858;-1.778;2023-06-24T09:20:34;7.45;;;4.35;;
22308;SDS011;11322;50.858;-1.778;2023-06-24T09:25:34;9.6;;;5.0;;
22308;SDS011;11322;50.858;-1.778;2023-06-24T09:30:34;6.7;;;4.1;;
22308;SDS011;11322;50.858;-1.778;2023-06-24T09:35:34;5.85;;;4.3;;
22308;SDS011;11322;50.858;-1.778;2023-06-24T09:40:34;7.15;;;4.1;;
22308;SDS011;11322;50.858;-1.778;2023-06-24T09:45:34;9.2;;;5.0;;
22308;SDS011;11322;50.858;-1.778;2023-06-24T09:50:34;9.65;;;4.85;;
22308;SDS011;11322;50.858;-1.778;2023-06-24T09:55:34;10.15;;;4.05;;
22308;SDS011;11322;50.858;-1.778;2023-06-24T10:00:34;8.25;;;5.35;;
22308;SDS011;11322;50.858;-1.778;2023-06-24T10:05:34;6.55;;;4.45;;
22308;SDS011;11322;50.858;-1.778;2023-06-24T10:10:34;6.85;;;3.9;;
22308;SDS011;11322;50.858;-1.778;2023-06-24T10:15:34;6.3;;;3.55;;
22308;SDS011;11322;50.858;-1.778;2023-06-24T10:20:36;6.3;;;4.2;;
22308;SDS011;11322;50.858;-1.778;2023-06-24T10:25:35;7.35;;;4.7;;
22308;SDS011;11322;50.858;-1.778;2023-06-24T10:30:34;6.2;;;4.2;;
22308;SDS011;11322;50.858;-1.778;2023-06-24T10:35:35;8.95;;;4.65;;
22308;SDS011;11322;50.858;-1.778;2023-06-24T10:40:34;5.55;;;3.9;;
22308;SDS011;11322;50.858;-1.778;2023-06-24T10:45:34;6.9;;;4.3;;
22308;SDS011;11322;50.858;-1.778;2023-06-24T10:50:34;7.7;;;4.3;;
22308;SDS011;11322;50.858;-1.778;2023-06-24T10:55:35;8.1;;;4.4;;
22308;SDS011;11322;50.858;-1.778;2023-06-24T11:00:34;6.5;;;3.6;;
22308;SDS011;11322;50.858;-1.778;2023-06-24T11:05:34;6.35;;;3.95;;
22308;SDS011;11322;50.858;-1.778;2023-06-24T11:10:41;7.9;;;3.6;;
22308;SDS011;11322;50.858;-1.778;2023-06-24T11:15:34;7.0;;;3.8;;
22308;SDS011;11322;50.858;-1.778;2023-06-24T11:20:35;5.2;;;2.85;;
22308;SDS011;11322;50.858;-1.778;2023-06-24T11:25:38;5.0;;;2.75;;
22308;SDS011;11322;50.858;-1.778;2023-06-24T11:30:34;7.85;;;2.9;;
22308;SDS011;11322;50.858;-1.778;2023-06-24T11:35:34;4.95;;;2.7;;
22308;SDS011;11322;50.858;-1.778;2023-06-24T11:40:34;5.15;;;2.35;;
22308;SDS011;11322;50.858;-1.778;2023-06-24T11:45:34;3.35;;;2.2;;
22308;SDS011;11322;50.858;-1.778;2023-06-24T11:50:35;3.0;;;2.1;;
22308;SDS011;11322;50.858;-1.778;2023-06-24T11:55:34;5.3;;;2.5;;
22308;SDS011;11322;50.858;-1.778;2023-06-24T12:00:35;5.1;;;2.6;;
22308;SDS011;11322;50.858;-1.778;2023-06-24T12:05:34;2.25;;;1.85;;
22308;SDS011;11322;50.858;-1.778;2023-06-24T12:11:34;3.9;;;2.75;;
22308;SDS011;11322;50.858;-1.778;2023-06-24T12:15:34;1.95;;;1.75;;
22308;SDS011;11322;50.858;-1.778;2023-06-24T12:20:34;4.3;;;2.3;;
22308;SDS011;11322;50.858;-1.778;2023-06-24T12:25:34;2.05;;;1.6;;
22308;SDS011;11322;50.858;-1.778;2023-06-24T12:30:34;3.25;;;2.0;;
22308;SDS011;11322;50.858;-1.778;2023-06-24T12:35:34;4.4;;;2.2;;
22308;SDS011;11322;50.858;-1.778;2023-06-24T12:40:34;2.75;;;2.0;;
22308;SDS011;11322;50.858;-1.778;2023-06-24T12:45:34;4.2;;;1.75;;
22308;SDS011;11322;50.858;-1.778;2023-06-24T12:50:34;2.4;;;1.95;;
22308;SDS011;11322;50.858;-1.778;2023-06-24T12:55:34;3.65;;;1.85;;
22308;SDS011;11322;50.858;-1.778;2023-06-24T13:00:34;2.25;;;1.9;;
22308;SDS011;11322;50.858;-1.778;2023-06-24T13:05:34;2.55;;;1.6;;
22308;SDS011;11322;50.858;-1.778;2023-06-24T13:10:34;2.9;;;1.7;;
22308;SDS011;11322;50.858;-1.778;2023-06-24T13:15:34;3.9;;;1.65;;
22308;SDS011;11322;50.858;-1.778;2023-06-24T13:20:34;1.95;;;1.7;;
22308;SDS011;11322;50.858;-1.778;2023-06-24T13:25:34;2.0;;;1.8;;
22308;SDS011;11322;50.858;-1.778;2023-06-24T13:30:34;1.6;;;1.5;;
22308;SDS011;11322;50.858;-1.778;2023-06-24T13:35:34;5.0;;;2.3;;
22308;SDS011;11322;50.858;-1.778;2023-06-24T13:40:34;4.3;;;2.1;;
22308;SDS011;11322;50.858;-1.778;2023-06-24T13:45:34;2.7;;;1.9;;
22308;SDS011;11322;50.858;-1.778;2023-06-24T13:50:34;3.05;;;2.0;;
22308;SDS011;11322;50.858;-1.778;2023-06-24T13:55:34;4.45;;;2.2;;
22308;SDS011;11322;50.858;-1.778;2023-06-24T14:00:34;2.4;;;1.8;;
22308;SDS011;11322;50.858;-1.778;2023-06-24T14:05:34;2.65;;;1.85;;
22308;SDS011;11322;50.858;-1.778;2023-06-24T14:10:34;2.8;;;1.8;;
22308;SDS011;11322;50.858;-1.778;2023-06-24T14:15:34;6.65;;;2.5;;
22308;SDS011;11322;50.858;-1.778;2023-06-24T14:20:34;3.5;;;1.8;;
22308;SDS011;11322;50.858;-1.778;2023-06-24T14:25:34;6.4;;;2.2;;
22308;SDS011;11322;50.858;-1.778;2023-06-24T14:30:34;1.95;;;1.7;;
22308;SDS011;11322;50.858;-1.778;2023-06-24T14:35:34;4.2;;;2.0;;
22308;SDS011;11322;50.858;-1.778;2023-06-24T14:40:34;2.35;;;1.6;;
22308;SDS011;11322;50.858;-1.778;2023-06-24T14:45:34;2.3;;;2.1;;
22308;SDS011;11322;50.858;-1.778;2023-06-24T14:50:34;2.6;;;1.9;;
22308;SDS011;11322;50.858;-1.778;2023-06-24T14:55:34;2.65;;;1.9;;
22308;SDS011;11322;50.858;-1.778;2023-06-24T15:00:34;2.3;;;1.9;;
22308;SDS011;11322;50.858;-1.778;2023-06-24T15:05:34;3.6;;;1.6;;
22308;SDS011;11322;50.858;-1.778;2023-06-24T15:10:34;1.95;;;1.3;;
22308;SDS011;11322;50.858;-1.778;2023-06-24T15:15:34;2.1;;;1.75;;
22308;SDS011;11322;50.858;-1.778;2023-06-24T15:20:34;2.35;;;1.5;;
22308;SDS011;11322;50.858;-1.778;2023-06-24T15:25:34;3.2;;;1.7;;
22308;SDS011;11322;50.858;-1.778;2023-06-24T15:30:34;2.25;;;1.9;;
22308;SDS011;11322;50.858;-1.778;2023-06-24T15:35:34;2.9;;;1.5;;
22308;SDS011;11322;50.858;-1.778;2023-06-24T15:40:34;2.1;;;1.25;;
22308;SDS011;11322;50.858;-1.778;2023-06-24T15:45:34;3.85;;;1.6;;
22308;SDS011;11322;50.858;-1.778;2023-06-24T15:50:34;2.45;;;1.4;;
22308;SDS011;11322;50.858;-1.778;2023-06-24T15:55:34;2.15;;;1.35;;
22308;SDS011;11322;50.858;-1.778;2023-06-24T16:00:34;4.25;;;1.7;;
22308;SDS011;11322;50.858;-1.778;2023-06-24T16:05:34;4.7;;;1.85;;
22308;SDS011;11322;50.858;-1.778;2023-06-24T16:10:34;2.15;;;1.8;;
22308;SDS011;11322;50.858;-1.778;2023-06-24T16:15:34;1.8;;;1.5;;
22308;SDS011;11322;50.858;-1.778;2023-06-24T16:20:34;1.7;;;1.25;;
22308;SDS011;11322;50.858;-1.778;2023-06-24T16:25:34;3.15;;;1.7;;
22308;SDS011;11322;50.858;-1.778;2023-06-24T16:30:34;3.8;;;1.95;;
22308;SDS011;11322;50.858;-1.778;2023-06-24T16:35:34;3.2;;;1.8;;
22308;SDS011;11322;50.858;-1.778;2023-06-24T16:40:34;1.8;;;1.6;;
22308;SDS011;11322;50.858;-1.778;2023-06-24T16:45:34;2.9;;;1.6;;
22308;SDS011;11322;50.858;-1.778;2023-06-24T16:50:34;1.7;;;1.35;;
22308;SDS011;11322;50.858;-1.778;2023-06-24T16:55:34;2.2;;;1.7;;
22308;SDS011;11322;50.858;-1.778;2023-06-24T17:00:34;2.6;;;1.65;;
22308;SDS011;11322;50.858;-1.778;2023-06-24T17:05:34;2.45;;;1.45;;
22308;SDS011;11322;50.858;-1.778;2023-06-24T17:10:34;1.95;;;1.7;;
22308;SDS011;11322;50.858;-1.778;2023-06-24T17:15:34;1.75;;;1.55;;
22308;SDS011;11322;50.858;-1.778;2023-06-24T17:20:34;2.7;;;1.4;;
22308;SDS011;11322;50.858;-1.778;2023-06-24T17:25:34;2.05;;;1.4;;
22308;SDS011;11322;50.858;-1.778;2023-06-24T17:30:34;2.45;;;1.65;;
22308;SDS011;11322;50.858;-1.778;2023-06-24T17:35:34;2.9;;;1.5;;
22308;SDS011;11322;50.858;-1.778;2023-06-24T17:40:34;1.95;;;1.4;;
22308;SDS011;11322;50.858;-1.778;2023-06-24T17:45:34;2.45;;;1.5;;
22308;SDS011;11322;50.858;-1.778;2023-06-24T17:50:34;2.65;;;1.45;;
22308;SDS011;11322;50.858;-1.778;2023-06-24T17:55:34;6.2;;;1.55;;
22308;SDS011;11322;50.858;-1.778;2023-06-24T18:00:34;1.85;;;1.45;;
22308;SDS011;11322;50.858;-1.778;2023-06-24T18:05:34;1.95;;;1.7;;
22308;SDS011;11322;50.858;-1.778;2023-06-24T18:10:34;2.5;;;1.3;;
22308;SDS011;11322;50.858;-1.778;2023-06-24T18:15:34;5.15;;;1.4;;
22308;SDS011;11322;50.858;-1.778;2023-06-24T18:20:34;2.8;;;1.4;;
22308;SDS011;11322;50.858;-1.778;2023-06-24T18:25:34;1.55;;;1.4;;
22308;SDS011;11322;50.858;-1.778;2023-06-24T18:30:34;3.6;;;1.8;;
22308;SDS011;11322;50.858;-1.778;2023-06-24T18:35:34;1.2;;;1.1;;
22308;SDS011;11322;50.858;-1.778;2023-06-24T18:40:34;2.3;;;1.3;;
22308;SDS011;11322;50.858;-1.778;2023-06-24T18:45:34;1.3;;;1.2;;
22308;SDS011;11322;50.858;-1.778;2023-06-24T18:50:34;2.3;;;1.35;;
22308;SDS011;11322;50.858;-1.778;2023-06-24T18:55:34;2.55;;;1.3;;
22308;SDS011;11322;50.858;-1.778;2023-06-24T19:00:34;3.0;;;1.85;;
22308;SDS011;11322;50.858;-1.778;2023-06-24T19:05:34;2.55;;;1.75;;
22308;SDS011;11322;50.858;-1.778;2023-06-24T19:10:34;3.15;;;1.7;;
22308;SDS011;11322;50.858;-1.778;2023-06-24T19:15:34;3.65;;;1.9;;
22308;SDS011;11322;50.858;-1.778;2023-06-24T19:20:34;2.55;;;1.5;;
22308;SDS011;11322;50.858;-1.778;2023-06-24T19:25:34;2.75;;;1.65;;
22308;SDS011;11322;50.858;-1.778;2023-06-24T19:30:34;1.9;;;1.7;;
22308;SDS011;11322;50.858;-1.778;2023-06-24T19:35:34;2.65;;;1.9;;
22308;SDS011;11322;50.858;-1.778;2023-06-24T19:40:34;2.5;;;1.35;;
22308;SDS011;11322;50.858;-1.778;2023-06-24T19:45:34;3.05;;;1.45;;
22308;SDS011;11322;50.858;-1.778;2023-06-24T19:50:34;2.4;;;1.6;;
22308;SDS011;11322;50.858;-1.778;2023-06-24T19:55:34;3.95;;;1.8;;
22308;SDS011;11322;50.858;-1.778;2023-06-24T20:00:34;2.55;;;1.85;;
22308;SDS011;11322;50.858;-1.778;2023-06-24T20:05:34;2.3;;;1.6;;
22308;SDS011;11322;50.858;-1.778;2023-06-24T20:10:34;2.1;;;1.9;;
22308;SDS011;11322;50.858;-1.778;2023-06-24T20:15:34;3.95;;;2.3;;
22308;SDS011;11322;50.858;-1.778;2023-06-24T20:20:34;3.65;;;1.9;;
22308;SDS011;11322;50.858;-1.778;2023-06-24T20:25:34;2.8;;;1.95;;
22308;SDS011;11322;50.858;-1.778;2023-06-24T20:30:34;10.3;;;5.2;;
22308;SDS011;11322;50.858;-1.778;2023-06-24T20:35:34;10.05;;;4.7;;
22308;SDS011;11322;50.858;-1.778;2023-06-24T20:40:34;12.25;;;6.05;;
22308;SDS011;11322;50.858;-1.778;2023-06-24T20:45:34;14.2;;;6.3;;
22308;SDS011;11322;50.858;-1.778;2023-06-24T20:50:34;11.75;;;5.35;;
22308;SDS011;11322;50.858;-1.778;2023-06-24T20:55:34;11.05;;;5.7;;
22308;SDS011;11322;50.858;-1.778;2023-06-24T21:00:39;10.85;;;5.4;;
22308;SDS011;11322;50.858;-1.778;2023-06-24T21:05:34;8.2;;;4.6;;
22308;SDS011;11322;50.858;-1.778;2023-06-24T21:10:34;12.3;;;6.1;;
22308;SDS011;11322;50.858;-1.778;2023-06-24T21:15:35;10.85;;;5.75;;
22308;SDS011;11322;50.858;-1.778;2023-06-24T21:20:34;9.8;;;4.95;;
22308;SDS011;11322;50.858;-1.778;2023-06-24T21:25:34;7.5;;;3.95;;
22308;SDS011;11322;50.858;-1.778;2023-06-24T21:30:34;8.25;;;3.95;;
22308;SDS011;11322;50.858;-1.778;2023-06-24T21:35:46;7.15;;;4.05;;
22308;SDS011;11322;50.858;-1.778;2023-06-24T21:40:34;6.95;;;3.85;;
22308;SDS011;11322;50.858;-1.778;2023-06-24T21:45:34;5.2;;;2.6;;
22308;SDS011;11322;50.858;-1.778;2023-06-24T21:50:34;5.0;;;2.25;;
22308;SDS011;11322;50.858;-1.778;2023-06-24T21:55:34;4.3;;;2.0;;
22308;SDS011;11322;50.858;-1.778;2023-06-24T22:00:34;2.55;;;2.1;;
22308;SDS011;11322;50.858;-1.778;2023-06-24T22:05:34;3.1;;;1.95;;
22308;SDS011;11322;50.858;-1.778;2023-06-24T22:10:34;2.65;;;1.95;;
22308;SDS011;11322;50.858;-1.778;2023-06-24T22:15:34;2.45;;;2.0;;
22308;SDS011;11322;50.858;-1.778;2023-06-24T22:20:34;2.2;;;1.6;;
22308;SDS011;11322;50.858;-1.778;2023-06-24T22:25:34;2.95;;;1.95;;
22308;SDS011;11322;50.858;-1.778;2023-06-24T22:30:34;3.2;;;1.7;;
22308;SDS011;11322;50.858;-1.778;2023-06-24T22:35:34;3.4;;;1.9;;
22308;SDS011;11322;50.858;-1.778;2023-06-24T22:40:34;6.55;;;2.3;;
22308;SDS011;11322;50.858;-1.778;2023-06-24T22:45:34;2.75;;;1.8;;
22308;SDS011;11322;50.858;-1.778;2023-06-24T22:50:34;4.4;;;2.3;;
22308;SDS011;11322;50.858;-1.778;2023-06-24T22:55:34;3.9;;;2.05;;
22308;SDS011;11322;50.858;-1.778;2023-06-24T23:00:34;3.75;;;2.15;;
22308;SDS011;11322;50.858;-1.778;2023-06-24T23:05:34;4.6;;;2.4;;
22308;SDS011;11322;50.858;-1.778;2023-06-24T23:10:34;5.55;;;2.3;;
22308;SDS011;11322;50.858;-1.778;2023-06-24T23:15:34;3.3;;;2.0;;
22308;SDS011;11322;50.858;-1.778;2023-06-24T23:20:34;3.6;;;1.75;;
22308;SDS011;11322;50.858;-1.778;2023-06-24T23:25:34;3.8;;;2.1;;
22308;SDS011;11322;50.858;-1.778;2023-06-24T23:30:34;2.45;;;2.0;;
22308;SDS011;11322;50.858;-1.778;2023-06-24T23:35:34;3.95;;;1.85;;
22308;SDS011;11322;50.858;-1.778;2023-06-24T23:40:34;5.25;;;1.8;;
22308;SDS011;11322;50.858;-1.778;2023-06-24T23:45:34;2.2;;;1.9;;
22308;SDS011;11322;50.858;-1.778;2023-06-24T23:50:34;3.15;;;1.65;;
22308;SDS011;11322;50.858;-1.778;2023-06-24T23:55:34;2.85;;;1.9;;
